This is the latest recevied weather packets stored in our database for station/object BM1CKC-10. If no packets are shown the sender has not sent any weather packets the latest 10 day(s).
| Time | Temp. | Humidity | Pressure | Rain* | Wind** | Luminosity | Snow |
|---|---|---|---|---|---|---|---|
| 1777762199 | 25.56° C | 59% | 1002.8 hPa | - | - | - | - |
| 1777761007 | 25.56° C | 58% | 1002.5 hPa | - | - | - | - |
| 1777759799 | 25.56° C | 59% | 1002.4 hPa | - | - | - | - |
| 1777758599 | 25.56° C | 60% | 1002.2 hPa | - | - | - | - |
| 1777757398 | 25.56° C | 60% | 1002.1 hPa | - | - | - | - |
| 1777756198 | 25° C | 57% | 1001.9 hPa | - | - | - | - |
| 1777754999 | 25.56° C | 59% | 1002.1 hPa | - | - | - | - |
| 1777753799 | 25.56° C | 59% | 1002.1 hPa | - | - | - | - |
| 1777752599 | 25.56° C | 59% | 1002 hPa | - | - | - | - |
| 1777751399 | 25.56° C | 59% | 1002 hPa | - | - | - | - |
| 1777750199 | 25.56° C | 59% | 1002.1 hPa | - | - | - | - |
| 1777748999 | 25° C | 59% | 1002.1 hPa | - | - | - | - |
| 1777747799 | 26.11° C | 58% | 1002.3 hPa | - | - | - | - |
| 1777746599 | 24.44° C | 54% | 1002.4 hPa | - | - | - | - |
| 1777745399 | 24.44° C | 55% | 1002.7 hPa | - | - | - | - |
| 1777744205 | 24.44° C | 57% | 1003 hPa | - | - | - | - |
| 1777742999 | 24.44° C | 55% | 1003.2 hPa | - | - | - | - |
| 1777741799 | 25° C | 56% | 1003.5 hPa | - | - | - | - |
| 1777740599 | 24.44° C | 54% | 1003.5 hPa | - | - | - | - |
| 1777739399 | 24.44° C | 58% | 1003.9 hPa | - | - | - | - |
| 1777738198 | 23.89° C | 54% | 1003.9 hPa | - | - | - | - |
| 1777736998 | 24.44° C | 53% | 1004.1 hPa | - | - | - | - |
| 1777735798 | 24.44° C | 50% | 1004.2 hPa | - | - | - | - |
| 1777734599 | 25.56° C | 57% | 1004.5 hPa | - | - | - | - |
| 1777733399 | 25.56° C | 55% | 1004.6 hPa | - | - | - | - |
* Rain since midnight (hover to see other rain measurements)
** Current wind speed in m/s (hover to see current wind gust speed)